X  Sluiten METAR luchtvaart weer gegevens      LYNI Nis Airport
Temperatuur
30°C Temperatuur
16°C Dauwpunt
43% Vochtigheid



Wind
3 MPH
5 KM/U
1 M/S
3 KTS



290°
WNW
Huidig weer

Wat bewolking Wat bewolking
Luchtdruk 1010.84 (hPa) - 29.85 (inHg)
Zicht 6 (mijl) - 9.7 (km)
Vliegveld
Vliegveld code LYNI

Locatie : Nis Airport
Afstand: 63 (mi)

Metar:
LYNI 161430Z 29003KT 220V030 9999 FEW050 30/16 Q1011 NOSIG

Tijd: 16-06-2024 16:30 CEST